sensor_id;sensor_type;location;lat;lon;timestamp;temperature;humidity
37646;DHT22;23489;49.600;6.138;2024-03-29T00:00:42;6.70;99.90
37646;DHT22;23489;49.600;6.138;2024-03-29T00:03:10;6.70;99.90
37646;DHT22;23489;49.600;6.138;2024-03-29T00:05:37;6.70;99.90
37646;DHT22;23489;49.600;6.138;2024-03-29T00:08:06;6.70;99.90
37646;DHT22;23489;49.600;6.138;2024-03-29T00:10:33;6.80;99.90
37646;DHT22;23489;49.600;6.138;2024-03-29T00:12:58;6.80;99.90
37646;DHT22;23489;49.600;6.138;2024-03-29T00:15:24;6.80;99.90
37646;DHT22;23489;49.600;6.138;2024-03-29T00:17:50;6.80;99.90
37646;DHT22;23489;49.600;6.138;2024-03-29T00:20:16;6.80;99.90
37646;DHT22;23489;49.600;6.138;2024-03-29T00:22:42;6.80;99.90
37646;DHT22;23489;49.600;6.138;2024-03-29T00:25:08;6.90;99.90
37646;DHT22;23489;49.600;6.138;2024-03-29T00:27:34;6.90;99.90
37646;DHT22;23489;49.600;6.138;2024-03-29T00:30:00;6.90;99.90
37646;DHT22;23489;49.600;6.138;2024-03-29T00:32:25;6.90;99.90
37646;DHT22;23489;49.600;6.138;2024-03-29T00:34:52;7.00;99.90
37646;DHT22;23489;49.600;6.138;2024-03-29T00:37:19;7.00;99.90
37646;DHT22;23489;49.600;6.138;2024-03-29T00:39:45;7.00;99.90
37646;DHT22;23489;49.600;6.138;2024-03-29T00:42:11;7.10;99.90
37646;DHT22;23489;49.600;6.138;2024-03-29T00:44:44;7.10;99.90
37646;DHT22;23489;49.600;6.138;2024-03-29T00:47:10;7.20;99.90
37646;DHT22;23489;49.600;6.138;2024-03-29T00:49:36;7.20;99.90
37646;DHT22;23489;49.600;6.138;2024-03-29T00:52:03;7.20;99.90
37646;DHT22;23489;49.600;6.138;2024-03-29T00:54:29;7.20;99.90
37646;DHT22;23489;49.600;6.138;2024-03-29T00:56:54;7.30;99.90
37646;DHT22;23489;49.600;6.138;2024-03-29T00:59:20;7.30;99.90
37646;DHT22;23489;49.600;6.138;2024-03-29T01:01:46;7.30;99.90
37646;DHT22;23489;49.600;6.138;2024-03-29T01:04:12;7.40;99.90
37646;DHT22;23489;49.600;6.138;2024-03-29T01:06:38;7.40;99.90
37646;DHT22;23489;49.600;6.138;2024-03-29T01:09:06;7.50;99.90
37646;DHT22;23489;49.600;6.138;2024-03-29T01:11:31;7.60;99.90
37646;DHT22;23489;49.600;6.138;2024-03-29T01:13:57;7.60;99.90
37646;DHT22;23489;49.600;6.138;2024-03-29T01:16:23;7.80;99.90
37646;DHT22;23489;49.600;6.138;2024-03-29T01:18:49;7.80;99.90
37646;DHT22;23489;49.600;6.138;2024-03-29T01:21:15;7.80;99.90
37646;DHT22;23489;49.600;6.138;2024-03-29T01:23:43;7.80;99.90
37646;DHT22;23489;49.600;6.138;2024-03-29T01:26:09;7.80;99.90
37646;DHT22;23489;49.600;6.138;2024-03-29T01:28:37;7.80;99.90
37646;DHT22;23489;49.600;6.138;2024-03-29T01:31:03;7.80;99.90
37646;DHT22;23489;49.600;6.138;2024-03-29T01:33:30;7.80;99.90
37646;DHT22;23489;49.600;6.138;2024-03-29T01:35:58;7.90;99.90
37646;DHT22;23489;49.600;6.138;2024-03-29T01:38:24;7.90;99.90
37646;DHT22;23489;49.600;6.138;2024-03-29T01:40:50;7.90;99.90
37646;DHT22;23489;49.600;6.138;2024-03-29T01:43:16;7.90;99.90
37646;DHT22;23489;49.600;6.138;2024-03-29T01:45:43;7.90;99.90
37646;DHT22;23489;49.600;6.138;2024-03-29T01:48:11;7.90;99.90
37646;DHT22;23489;49.600;6.138;2024-03-29T01:50:37;7.90;99.90
37646;DHT22;23489;49.600;6.138;2024-03-29T01:53:06;8.00;99.90
37646;DHT22;23489;49.600;6.138;2024-03-29T01:55:35;8.00;99.90
37646;DHT22;23489;49.600;6.138;2024-03-29T01:58:01;8.00;99.90
37646;DHT22;23489;49.600;6.138;2024-03-29T02:00:28;8.00;99.90
37646;DHT22;23489;49.600;6.138;2024-03-29T02:02:57;8.00;99.90
37646;DHT22;23489;49.600;6.138;2024-03-29T02:05:23;8.00;99.90
37646;DHT22;23489;49.600;6.138;2024-03-29T02:07:50;8.00;99.90
37646;DHT22;23489;49.600;6.138;2024-03-29T02:10:16;8.00;99.90
37646;DHT22;23489;49.600;6.138;2024-03-29T02:12:42;8.00;99.90
37646;DHT22;23489;49.600;6.138;2024-03-29T02:15:08;8.00;99.90
37646;DHT22;23489;49.600;6.138;2024-03-29T02:17:34;8.00;99.90
37646;DHT22;23489;49.600;6.138;2024-03-29T02:19:59;8.00;99.90
37646;DHT22;23489;49.600;6.138;2024-03-29T02:22:27;8.00;99.90
37646;DHT22;23489;49.600;6.138;2024-03-29T02:24:55;8.00;99.90
37646;DHT22;23489;49.600;6.138;2024-03-29T02:27:22;8.00;99.90
37646;DHT22;23489;49.600;6.138;2024-03-29T02:29:48;8.10;99.90
37646;DHT22;23489;49.600;6.138;2024-03-29T02:32:14;8.10;99.90
37646;DHT22;23489;49.600;6.138;2024-03-29T02:34:39;8.10;99.90
37646;DHT22;23489;49.600;6.138;2024-03-29T02:37:05;8.10;99.90
37646;DHT22;23489;49.600;6.138;2024-03-29T02:39:31;8.10;99.90
37646;DHT22;23489;49.600;6.138;2024-03-29T02:41:57;8.10;99.90
37646;DHT22;23489;49.600;6.138;2024-03-29T02:44:23;8.00;99.90
37646;DHT22;23489;49.600;6.138;2024-03-29T02:46:49;7.80;99.90
37646;DHT22;23489;49.600;6.138;2024-03-29T02:49:14;7.70;99.90
37646;DHT22;23489;49.600;6.138;2024-03-29T02:51:40;7.60;99.90
37646;DHT22;23489;49.600;6.138;2024-03-29T02:54:06;7.50;99.90
37646;DHT22;23489;49.600;6.138;2024-03-29T02:56:32;7.50;99.90
37646;DHT22;23489;49.600;6.138;2024-03-29T02:58:58;7.40;99.90
37646;DHT22;23489;49.600;6.138;2024-03-29T03:01:24;7.40;99.90
37646;DHT22;23489;49.600;6.138;2024-03-29T03:03:49;7.40;99.90
37646;DHT22;23489;49.600;6.138;2024-03-29T03:06:15;7.40;99.90
37646;DHT22;23489;49.600;6.138;2024-03-29T03:08:41;7.30;99.90
37646;DHT22;23489;49.600;6.138;2024-03-29T03:11:25;7.30;99.90
37646;DHT22;23489;49.600;6.138;2024-03-29T03:13:51;7.30;99.90
37646;DHT22;23489;49.600;6.138;2024-03-29T03:16:17;7.30;99.90
37646;DHT22;23489;49.600;6.138;2024-03-29T03:18:43;7.30;99.90
37646;DHT22;23489;49.600;6.138;2024-03-29T03:21:08;7.20;99.90
37646;DHT22;23489;49.600;6.138;2024-03-29T03:23:34;7.20;99.90
37646;DHT22;23489;49.600;6.138;2024-03-29T03:26:02;7.20;99.90
37646;DHT22;23489;49.600;6.138;2024-03-29T03:28:31;7.10;99.90
37646;DHT22;23489;49.600;6.138;2024-03-29T03:30:57;7.10;99.90
37646;DHT22;23489;49.600;6.138;2024-03-29T03:33:22;7.10;99.90
37646;DHT22;23489;49.600;6.138;2024-03-29T03:35:48;7.10;99.90
37646;DHT22;23489;49.600;6.138;2024-03-29T03:38:15;7.10;99.90
37646;DHT22;23489;49.600;6.138;2024-03-29T03:40:41;7.10;99.90
37646;DHT22;23489;49.600;6.138;2024-03-29T03:43:07;7.10;99.90
37646;DHT22;23489;49.600;6.138;2024-03-29T03:45:37;7.10;99.90
37646;DHT22;23489;49.600;6.138;2024-03-29T03:48:05;7.10;99.90
37646;DHT22;23489;49.600;6.138;2024-03-29T03:50:30;7.10;99.90
37646;DHT22;23489;49.600;6.138;2024-03-29T03:52:56;7.10;99.90
37646;DHT22;23489;49.600;6.138;2024-03-29T03:55:23;7.10;99.90
37646;DHT22;23489;49.600;6.138;2024-03-29T03:57:49;7.10;99.90
37646;DHT22;23489;49.600;6.138;2024-03-29T04:00:15;7.10;99.90
37646;DHT22;23489;49.600;6.138;2024-03-29T04:02:41;7.10;99.90
37646;DHT22;23489;49.600;6.138;2024-03-29T04:05:07;7.10;99.90
37646;DHT22;23489;49.600;6.138;2024-03-29T04:07:33;7.10;99.90
37646;DHT22;23489;49.600;6.138;2024-03-29T04:09:59;7.00;99.90
37646;DHT22;23489;49.600;6.138;2024-03-29T04:12:24;7.00;99.90
37646;DHT22;23489;49.600;6.138;2024-03-29T04:14:50;7.00;99.90
37646;DHT22;23489;49.600;6.138;2024-03-29T04:17:16;7.10;99.90
37646;DHT22;23489;49.600;6.138;2024-03-29T04:19:41;7.10;99.90
37646;DHT22;23489;49.600;6.138;2024-03-29T04:22:07;7.10;99.90
37646;DHT22;23489;49.600;6.138;2024-03-29T04:24:33;7.10;99.90
37646;DHT22;23489;49.600;6.138;2024-03-29T04:26:58;7.10;99.90
37646;DHT22;23489;49.600;6.138;2024-03-29T04:29:24;7.10;99.90
37646;DHT22;23489;49.600;6.138;2024-03-29T04:31:50;7.10;99.90
37646;DHT22;23489;49.600;6.138;2024-03-29T04:34:16;7.20;99.90
37646;DHT22;23489;49.600;6.138;2024-03-29T04:36:41;7.20;99.90
37646;DHT22;23489;49.600;6.138;2024-03-29T04:39:07;7.20;99.90
37646;DHT22;23489;49.600;6.138;2024-03-29T04:41:33;7.20;99.90
37646;DHT22;23489;49.600;6.138;2024-03-29T04:44:01;7.20;99.90
37646;DHT22;23489;49.600;6.138;2024-03-29T04:46:30;7.30;99.90
37646;DHT22;23489;49.600;6.138;2024-03-29T04:48:56;7.30;99.90
37646;DHT22;23489;49.600;6.138;2024-03-29T04:51:21;7.30;99.90
37646;DHT22;23489;49.600;6.138;2024-03-29T04:53:47;7.40;99.90
37646;DHT22;23489;49.600;6.138;2024-03-29T04:56:13;7.40;99.90
37646;DHT22;23489;49.600;6.138;2024-03-29T04:58:38;7.40;99.90
37646;DHT22;23489;49.600;6.138;2024-03-29T05:01:04;7.40;99.90
37646;DHT22;23489;49.600;6.138;2024-03-29T05:03:30;7.50;99.90
37646;DHT22;23489;49.600;6.138;2024-03-29T05:05:56;7.50;99.90
37646;DHT22;23489;49.600;6.138;2024-03-29T05:08:22;7.50;99.90
37646;DHT22;23489;49.600;6.138;2024-03-29T05:10:51;7.50;99.90
37646;DHT22;23489;49.600;6.138;2024-03-29T05:13:17;7.50;99.90
37646;DHT22;23489;49.600;6.138;2024-03-29T05:15:46;7.60;99.90
37646;DHT22;23489;49.600;6.138;2024-03-29T05:18:13;7.60;99.90
37646;DHT22;23489;49.600;6.138;2024-03-29T05:20:38;7.70;99.90
37646;DHT22;23489;49.600;6.138;2024-03-29T05:23:13;7.70;99.90
37646;DHT22;23489;49.600;6.138;2024-03-29T05:25:40;7.70;99.90
37646;DHT22;23489;49.600;6.138;2024-03-29T05:28:06;7.70;99.90
37646;DHT22;23489;49.600;6.138;2024-03-29T05:30:33;7.80;99.90
37646;DHT22;23489;49.600;6.138;2024-03-29T05:33:00;7.80;99.90
37646;DHT22;23489;49.600;6.138;2024-03-29T05:35:25;7.80;99.90
37646;DHT22;23489;49.600;6.138;2024-03-29T05:37:51;7.90;99.90
37646;DHT22;23489;49.600;6.138;2024-03-29T05:40:19;7.90;99.90
37646;DHT22;23489;49.600;6.138;2024-03-29T05:42:47;7.90;99.90
37646;DHT22;23489;49.600;6.138;2024-03-29T05:45:29;8.00;99.90
37646;DHT22;23489;49.600;6.138;2024-03-29T05:47:57;8.10;99.90
37646;DHT22;23489;49.600;6.138;2024-03-29T05:50:24;8.10;99.90
37646;DHT22;23489;49.600;6.138;2024-03-29T05:52:51;8.20;99.90
37646;DHT22;23489;49.600;6.138;2024-03-29T05:55:17;8.30;99.90
37646;DHT22;23489;49.600;6.138;2024-03-29T05:57:43;8.30;99.90
37646;DHT22;23489;49.600;6.138;2024-03-29T06:00:12;8.40;99.90
37646;DHT22;23489;49.600;6.138;2024-03-29T06:02:42;8.40;99.90
37646;DHT22;23489;49.600;6.138;2024-03-29T06:05:10;8.40;99.90
37646;DHT22;23489;49.600;6.138;2024-03-29T06:07:36;8.50;99.90
37646;DHT22;23489;49.600;6.138;2024-03-29T06:10:02;8.50;99.90
37646;DHT22;23489;49.600;6.138;2024-03-29T06:12:33;8.50;99.90
37646;DHT22;23489;49.600;6.138;2024-03-29T06:15:00;8.60;99.90
37646;DHT22;23489;49.600;6.138;2024-03-29T06:17:44;8.60;99.90
37646;DHT22;23489;49.600;6.138;2024-03-29T06:20:12;8.60;99.90
37646;DHT22;23489;49.600;6.138;2024-03-29T06:22:37;8.70;99.90
37646;DHT22;23489;49.600;6.138;2024-03-29T06:25:04;8.70;99.90
37646;DHT22;23489;49.600;6.138;2024-03-29T06:27:35;8.70;99.90
37646;DHT22;23489;49.600;6.138;2024-03-29T06:30:02;8.70;99.90
37646;DHT22;23489;49.600;6.138;2024-03-29T06:32:30;8.70;99.90
37646;DHT22;23489;49.600;6.138;2024-03-29T06:34:55;8.70;99.90
37646;DHT22;23489;49.600;6.138;2024-03-29T06:37:21;8.70;99.90
37646;DHT22;23489;49.600;6.138;2024-03-29T06:39:50;8.80;99.90
37646;DHT22;23489;49.600;6.138;2024-03-29T06:42:16;8.70;99.90
37646;DHT22;23489;49.600;6.138;2024-03-29T06:44:42;8.80;99.90
37646;DHT22;23489;49.600;6.138;2024-03-29T06:47:08;8.80;99.90
37646;DHT22;23489;49.600;6.138;2024-03-29T06:49:35;8.90;99.90
37646;DHT22;23489;49.600;6.138;2024-03-29T06:52:00;8.90;99.90
37646;DHT22;23489;49.600;6.138;2024-03-29T06:54:29;8.90;99.90
37646;DHT22;23489;49.600;6.138;2024-03-29T06:56:56;8.90;99.90
37646;DHT22;23489;49.600;6.138;2024-03-29T06:59:22;9.00;99.90
37646;DHT22;23489;49.600;6.138;2024-03-29T07:01:48;9.00;99.90
37646;DHT22;23489;49.600;6.138;2024-03-29T07:04:24;9.00;99.90
37646;DHT22;23489;49.600;6.138;2024-03-29T07:06:53;9.00;99.90
37646;DHT22;23489;49.600;6.138;2024-03-29T07:09:22;9.00;99.90
37646;DHT22;23489;49.600;6.138;2024-03-29T07:11:50;9.00;99.90
37646;DHT22;23489;49.600;6.138;2024-03-29T07:14:17;9.00;99.90
37646;DHT22;23489;49.600;6.138;2024-03-29T07:16:44;9.10;99.90
37646;DHT22;23489;49.600;6.138;2024-03-29T07:19:11;9.10;99.90
37646;DHT22;23489;49.600;6.138;2024-03-29T07:21:45;9.10;99.90
37646;DHT22;23489;49.600;6.138;2024-03-29T07:24:11;9.20;99.90
37646;DHT22;23489;49.600;6.138;2024-03-29T07:26:37;9.20;99.90
37646;DHT22;23489;49.600;6.138;2024-03-29T07:29:03;9.20;99.90
37646;DHT22;23489;49.600;6.138;2024-03-29T07:31:31;9.20;99.90
37646;DHT22;23489;49.600;6.138;2024-03-29T07:33:57;9.30;99.90
37646;DHT22;23489;49.600;6.138;2024-03-29T07:36:22;9.30;99.90
37646;DHT22;23489;49.600;6.138;2024-03-29T07:38:51;9.40;99.90
37646;DHT22;23489;49.600;6.138;2024-03-29T07:41:16;9.40;99.90
37646;DHT22;23489;49.600;6.138;2024-03-29T07:43:53;9.40;99.90
37646;DHT22;23489;49.600;6.138;2024-03-29T07:46:22;9.40;99.90
37646;DHT22;23489;49.600;6.138;2024-03-29T07:48:49;9.40;99.90
37646;DHT22;23489;49.600;6.138;2024-03-29T07:51:15;9.40;99.90
37646;DHT22;23489;49.600;6.138;2024-03-29T07:53:40;9.40;99.90
37646;DHT22;23489;49.600;6.138;2024-03-29T07:56:06;9.40;99.90
37646;DHT22;23489;49.600;6.138;2024-03-29T07:58:32;9.50;99.90
37646;DHT22;23489;49.600;6.138;2024-03-29T08:00:57;9.50;99.90
37646;DHT22;23489;49.600;6.138;2024-03-29T08:03:23;9.50;99.90
37646;DHT22;23489;49.600;6.138;2024-03-29T08:06:00;9.50;99.90
37646;DHT22;23489;49.600;6.138;2024-03-29T08:08:27;9.60;99.90
37646;DHT22;23489;49.600;6.138;2024-03-29T08:10:53;9.50;99.90
37646;DHT22;23489;49.600;6.138;2024-03-29T08:13:20;9.50;99.90
37646;DHT22;23489;49.600;6.138;2024-03-29T08:15:47;9.50;99.90
37646;DHT22;23489;49.600;6.138;2024-03-29T08:18:13;9.50;99.90
37646;DHT22;23489;49.600;6.138;2024-03-29T08:20:39;9.50;99.90
37646;DHT22;23489;49.600;6.138;2024-03-29T08:23:05;9.50;99.90
37646;DHT22;23489;49.600;6.138;2024-03-29T08:25:30;9.40;99.90
37646;DHT22;23489;49.600;6.138;2024-03-29T08:27:56;9.40;99.90
37646;DHT22;23489;49.600;6.138;2024-03-29T08:30:25;9.40;99.90
37646;DHT22;23489;49.600;6.138;2024-03-29T08:32:51;9.50;99.90
37646;DHT22;23489;49.600;6.138;2024-03-29T08:35:18;9.50;99.90
37646;DHT22;23489;49.600;6.138;2024-03-29T08:37:45;9.60;99.90
37646;DHT22;23489;49.600;6.138;2024-03-29T08:40:11;9.60;99.90
37646;DHT22;23489;49.600;6.138;2024-03-29T08:42:37;9.70;99.90
37646;DHT22;23489;49.600;6.138;2024-03-29T08:45:04;9.70;99.90
37646;DHT22;23489;49.600;6.138;2024-03-29T08:47:33;9.80;99.90
37646;DHT22;23489;49.600;6.138;2024-03-29T08:49:59;9.80;99.90
37646;DHT22;23489;49.600;6.138;2024-03-29T08:52:25;9.80;99.90
37646;DHT22;23489;49.600;6.138;2024-03-29T08:54:51;9.80;99.90
37646;DHT22;23489;49.600;6.138;2024-03-29T08:57:16;9.90;99.90
37646;DHT22;23489;49.600;6.138;2024-03-29T08:59:42;9.90;99.90
37646;DHT22;23489;49.600;6.138;2024-03-29T09:02:08;9.90;99.90
37646;DHT22;23489;49.600;6.138;2024-03-29T09:04:34;9.90;99.90
37646;DHT22;23489;49.600;6.138;2024-03-29T09:07:00;9.90;99.90
37646;DHT22;23489;49.600;6.138;2024-03-29T09:09:27;10.00;99.90
37646;DHT22;23489;49.600;6.138;2024-03-29T09:11:53;10.00;99.90
37646;DHT22;23489;49.600;6.138;2024-03-29T09:14:19;10.00;99.90
37646;DHT22;23489;49.600;6.138;2024-03-29T09:16:44;9.90;99.90
37646;DHT22;23489;49.600;6.138;2024-03-29T09:19:16;9.80;99.90
37646;DHT22;23489;49.600;6.138;2024-03-29T09:21:42;9.70;99.90
37646;DHT22;23489;49.600;6.138;2024-03-29T09:24:07;9.60;99.90
37646;DHT22;23489;49.600;6.138;2024-03-29T09:26:33;9.70;99.90
37646;DHT22;23489;49.600;6.138;2024-03-29T09:28:59;9.80;99.90
37646;DHT22;23489;49.600;6.138;2024-03-29T09:31:25;9.90;99.90
37646;DHT22;23489;49.600;6.138;2024-03-29T09:33:51;10.00;99.90
37646;DHT22;23489;49.600;6.138;2024-03-29T09:36:23;10.10;99.90
37646;DHT22;23489;49.600;6.138;2024-03-29T09:38:49;10.40;99.90
37646;DHT22;23489;49.600;6.138;2024-03-29T09:41:18;10.50;99.90
37646;DHT22;23489;49.600;6.138;2024-03-29T09:43:47;10.80;99.90
37646;DHT22;23489;49.600;6.138;2024-03-29T09:46:14;11.00;99.90
37646;DHT22;23489;49.600;6.138;2024-03-29T09:48:41;11.20;99.90
37646;DHT22;23489;49.600;6.138;2024-03-29T09:51:09;11.30;99.90
37646;DHT22;23489;49.600;6.138;2024-03-29T09:53:36;11.20;99.90
37646;DHT22;23489;49.600;6.138;2024-03-29T09:56:06;11.20;99.90
37646;DHT22;23489;49.600;6.138;2024-03-29T09:58:33;11.00;99.90
37646;DHT22;23489;49.600;6.138;2024-03-29T10:01:00;10.90;99.90
37646;DHT22;23489;49.600;6.138;2024-03-29T10:03:27;10.80;99.90
37646;DHT22;23489;49.600;6.138;2024-03-29T10:06:01;10.90;99.90
37646;DHT22;23489;49.600;6.138;2024-03-29T10:08:29;10.90;99.90
37646;DHT22;23489;49.600;6.138;2024-03-29T10:10:56;11.00;99.90
37646;DHT22;23489;49.600;6.138;2024-03-29T10:13:22;10.90;99.90
37646;DHT22;23489;49.600;6.138;2024-03-29T10:15:55;10.80;99.90
37646;DHT22;23489;49.600;6.138;2024-03-29T10:18:25;10.70;99.90
37646;DHT22;23489;49.600;6.138;2024-03-29T10:21:05;10.60;99.90
37646;DHT22;23489;49.600;6.138;2024-03-29T10:23:32;10.60;99.90
37646;DHT22;23489;49.600;6.138;2024-03-29T10:25:58;10.40;99.90
37646;DHT22;23489;49.600;6.138;2024-03-29T10:28:31;10.30;99.90
37646;DHT22;23489;49.600;6.138;2024-03-29T10:30:59;10.30;99.90
37646;DHT22;23489;49.600;6.138;2024-03-29T10:33:28;10.30;99.90
37646;DHT22;23489;49.600;6.138;2024-03-29T10:35:54;10.30;99.90
37646;DHT22;23489;49.600;6.138;2024-03-29T10:38:21;10.30;99.90
37646;DHT22;23489;49.600;6.138;2024-03-29T10:40:48;10.30;99.90
37646;DHT22;23489;49.600;6.138;2024-03-29T10:43:16;10.30;99.90
37646;DHT22;23489;49.600;6.138;2024-03-29T10:45:43;10.20;99.90
37646;DHT22;23489;49.600;6.138;2024-03-29T10:48:09;10.20;99.90
37646;DHT22;23489;49.600;6.138;2024-03-29T10:50:36;10.20;99.90
37646;DHT22;23489;49.600;6.138;2024-03-29T10:53:03;10.30;99.90
37646;DHT22;23489;49.600;6.138;2024-03-29T10:55:36;10.30;99.90
37646;DHT22;23489;49.600;6.138;2024-03-29T10:58:04;10.40;99.90
37646;DHT22;23489;49.600;6.138;2024-03-29T11:00:33;10.40;99.90
37646;DHT22;23489;49.600;6.138;2024-03-29T11:05:55;10.40;99.90
37646;DHT22;23489;49.600;6.138;2024-03-29T11:08:26;10.40;99.90
37646;DHT22;23489;49.600;6.138;2024-03-29T11:10:58;10.30;99.90
37646;DHT22;23489;49.600;6.138;2024-03-29T11:13:38;10.40;99.90
37646;DHT22;23489;49.600;6.138;2024-03-29T11:16:05;10.40;99.90
37646;DHT22;23489;49.600;6.138;2024-03-29T11:18:31;10.50;99.90
37646;DHT22;23489;49.600;6.138;2024-03-29T11:20:58;10.60;99.90
37646;DHT22;23489;49.600;6.138;2024-03-29T11:23:27;10.70;99.90
37646;DHT22;23489;49.600;6.138;2024-03-29T11:25:54;10.70;99.90
37646;DHT22;23489;49.600;6.138;2024-03-29T11:28:30;10.80;99.90
37646;DHT22;23489;49.600;6.138;2024-03-29T11:31:05;10.80;99.90
37646;DHT22;23489;49.600;6.138;2024-03-29T11:38:37;11.20;99.90
37646;DHT22;23489;49.600;6.138;2024-03-29T11:41:04;11.20;99.90
37646;DHT22;23489;49.600;6.138;2024-03-29T11:43:30;11.30;99.90
37646;DHT22;23489;49.600;6.138;2024-03-29T11:45:58;11.40;99.90
37646;DHT22;23489;49.600;6.138;2024-03-29T11:48:27;11.40;99.90
37646;DHT22;23489;49.600;6.138;2024-03-29T11:50:53;11.50;99.90
37646;DHT22;23489;49.600;6.138;2024-03-29T11:53:20;11.50;99.90
37646;DHT22;23489;49.600;6.138;2024-03-29T11:55:46;11.50;99.90
37646;DHT22;23489;49.600;6.138;2024-03-29T11:58:14;11.40;99.90
37646;DHT22;23489;49.600;6.138;2024-03-29T12:00:41;11.50;99.90
37646;DHT22;23489;49.600;6.138;2024-03-29T12:03:10;11.50;99.90
37646;DHT22;23489;49.600;6.138;2024-03-29T12:05:35;11.70;99.90
37646;DHT22;23489;49.600;6.138;2024-03-29T12:08:01;11.70;99.90
37646;DHT22;23489;49.600;6.138;2024-03-29T12:10:27;11.80;99.90
37646;DHT22;23489;49.600;6.138;2024-03-29T12:12:56;11.80;99.90
37646;DHT22;23489;49.600;6.138;2024-03-29T12:15:23;11.80;99.90
37646;DHT22;23489;49.600;6.138;2024-03-29T12:17:58;11.80;99.90
37646;DHT22;23489;49.600;6.138;2024-03-29T12:20:24;11.70;99.90
37646;DHT22;23489;49.600;6.138;2024-03-29T12:22:49;11.90;99.90
37646;DHT22;23489;49.600;6.138;2024-03-29T12:25:15;12.00;99.90
37646;DHT22;23489;49.600;6.138;2024-03-29T12:27:44;12.00;99.90
37646;DHT22;23489;49.600;6.138;2024-03-29T12:30:12;12.10;99.90
37646;DHT22;23489;49.600;6.138;2024-03-29T12:32:38;12.00;99.90
37646;DHT22;23489;49.600;6.138;2024-03-29T12:35:11;12.10;99.90
37646;DHT22;23489;49.600;6.138;2024-03-29T12:37:37;12.00;99.90
37646;DHT22;23489;49.600;6.138;2024-03-29T12:40:07;12.00;99.90
37646;DHT22;23489;49.600;6.138;2024-03-29T12:42:41;12.00;99.90
37646;DHT22;23489;49.600;6.138;2024-03-29T12:45:07;12.00;99.90
37646;DHT22;23489;49.600;6.138;2024-03-29T12:47:37;12.10;99.90
37646;DHT22;23489;49.600;6.138;2024-03-29T12:50:02;12.30;99.90
37646;DHT22;23489;49.600;6.138;2024-03-29T12:52:37;12.50;99.90
37646;DHT22;23489;49.600;6.138;2024-03-29T12:55:04;12.60;99.90
37646;DHT22;23489;49.600;6.138;2024-03-29T12:57:31;12.80;99.90
37646;DHT22;23489;49.600;6.138;2024-03-29T12:59:57;12.90;99.90
37646;DHT22;23489;49.600;6.138;2024-03-29T13:02:23;13.00;99.90
37646;DHT22;23489;49.600;6.138;2024-03-29T13:04:48;13.20;99.90
37646;DHT22;23489;49.600;6.138;2024-03-29T13:07:14;13.30;99.90
37646;DHT22;23489;49.600;6.138;2024-03-29T13:09:40;13.40;99.90
37646;DHT22;23489;49.600;6.138;2024-03-29T13:12:06;13.60;99.90
37646;DHT22;23489;49.600;6.138;2024-03-29T13:14:32;13.70;99.90
37646;DHT22;23489;49.600;6.138;2024-03-29T13:16:59;13.60;99.90
37646;DHT22;23489;49.600;6.138;2024-03-29T13:19:25;13.50;99.90
37646;DHT22;23489;49.600;6.138;2024-03-29T13:21:50;13.30;99.90
37646;DHT22;23489;49.600;6.138;2024-03-29T13:24:16;13.20;99.90
37646;DHT22;23489;49.600;6.138;2024-03-29T13:26:42;12.90;99.90
37646;DHT22;23489;49.600;6.138;2024-03-29T13:29:08;12.50;99.90
37646;DHT22;23489;49.600;6.138;2024-03-29T13:31:34;12.30;99.90
37646;DHT22;23489;49.600;6.138;2024-03-29T13:34:00;12.20;99.90
37646;DHT22;23489;49.600;6.138;2024-03-29T13:36:38;12.10;99.90
37646;DHT22;23489;49.600;6.138;2024-03-29T13:39:05;11.90;99.90
37646;DHT22;23489;49.600;6.138;2024-03-29T13:41:30;11.80;99.90
37646;DHT22;23489;49.600;6.138;2024-03-29T13:43:56;11.80;99.90
37646;DHT22;23489;49.600;6.138;2024-03-29T13:46:22;11.80;99.90
37646;DHT22;23489;49.600;6.138;2024-03-29T13:48:47;11.80;99.90
37646;DHT22;23489;49.600;6.138;2024-03-29T13:51:13;11.80;99.90
37646;DHT22;23489;49.600;6.138;2024-03-29T13:53:41;11.60;99.90
37646;DHT22;23489;49.600;6.138;2024-03-29T13:56:07;11.50;99.90
37646;DHT22;23489;49.600;6.138;2024-03-29T13:58:33;11.40;99.90
37646;DHT22;23489;49.600;6.138;2024-03-29T14:00:59;11.30;99.90
37646;DHT22;23489;49.600;6.138;2024-03-29T14:03:26;11.30;99.90
37646;DHT22;23489;49.600;6.138;2024-03-29T14:05:52;11.20;99.90
37646;DHT22;23489;49.600;6.138;2024-03-29T14:08:17;11.10;99.90
37646;DHT22;23489;49.600;6.138;2024-03-29T14:10:43;11.10;99.90
37646;DHT22;23489;49.600;6.138;2024-03-29T14:13:09;10.90;99.90
37646;DHT22;23489;49.600;6.138;2024-03-29T14:15:35;10.80;99.90
37646;DHT22;23489;49.600;6.138;2024-03-29T14:18:00;10.70;99.90
37646;DHT22;23489;49.600;6.138;2024-03-29T14:20:26;10.70;99.90
37646;DHT22;23489;49.600;6.138;2024-03-29T14:22:52;10.70;99.90
37646;DHT22;23489;49.600;6.138;2024-03-29T14:25:21;10.80;99.90
37646;DHT22;23489;49.600;6.138;2024-03-29T14:27:47;10.90;99.90
37646;DHT22;23489;49.600;6.138;2024-03-29T14:30:20;11.00;99.90
37646;DHT22;23489;49.600;6.138;2024-03-29T14:32:46;11.00;99.90
37646;DHT22;23489;49.600;6.138;2024-03-29T14:35:12;10.90;99.90
37646;DHT22;23489;49.600;6.138;2024-03-29T14:37:40;10.90;99.90
37646;DHT22;23489;49.600;6.138;2024-03-29T14:40:06;10.80;99.90
37646;DHT22;23489;49.600;6.138;2024-03-29T14:42:32;10.70;99.90
37646;DHT22;23489;49.600;6.138;2024-03-29T14:44:57;10.70;99.90
37646;DHT22;23489;49.600;6.138;2024-03-29T14:47:23;10.70;99.90
37646;DHT22;23489;49.600;6.138;2024-03-29T14:49:49;10.60;99.90
37646;DHT22;23489;49.600;6.138;2024-03-29T14:52:15;10.60;99.90
37646;DHT22;23489;49.600;6.138;2024-03-29T14:54:40;10.60;99.90
37646;DHT22;23489;49.600;6.138;2024-03-29T14:57:06;10.50;99.90
37646;DHT22;23489;49.600;6.138;2024-03-29T14:59:32;10.40;99.90
37646;DHT22;23489;49.600;6.138;2024-03-29T15:01:59;10.40;99.90
37646;DHT22;23489;49.600;6.138;2024-03-29T15:04:25;10.40;99.90
37646;DHT22;23489;49.600;6.138;2024-03-29T15:06:51;10.40;99.90
37646;DHT22;23489;49.600;6.138;2024-03-29T15:09:17;10.40;99.90
37646;DHT22;23489;49.600;6.138;2024-03-29T15:11:42;10.40;99.90
37646;DHT22;23489;49.600;6.138;2024-03-29T15:14:08;10.40;99.90
37646;DHT22;23489;49.600;6.138;2024-03-29T15:16:36;10.40;99.90
37646;DHT22;23489;49.600;6.138;2024-03-29T15:19:02;10.40;99.90
37646;DHT22;23489;49.600;6.138;2024-03-29T15:21:28;10.40;99.90
37646;DHT22;23489;49.600;6.138;2024-03-29T15:23:54;10.40;99.90
37646;DHT22;23489;49.600;6.138;2024-03-29T15:26:20;10.30;99.90
37646;DHT22;23489;49.600;6.138;2024-03-29T15:28:46;10.40;99.90
37646;DHT22;23489;49.600;6.138;2024-03-29T15:31:30;10.30;99.90
37646;DHT22;23489;49.600;6.138;2024-03-29T15:33:56;10.30;99.90
37646;DHT22;23489;49.600;6.138;2024-03-29T15:36:22;10.30;99.90
37646;DHT22;23489;49.600;6.138;2024-03-29T15:38:48;10.40;99.90
37646;DHT22;23489;49.600;6.138;2024-03-29T15:41:20;10.40;99.90
37646;DHT22;23489;49.600;6.138;2024-03-29T15:43:46;10.30;99.90
37646;DHT22;23489;49.600;6.138;2024-03-29T15:46:12;10.20;99.90